Terminal Aerodrome Forecast
Issued by NWS

Home | Current Version | Previous Version | Text Only | Print | Product List | Glossary On
Versions: 1 2 3 4 5 6 7 8 9 10 11 12 13 14 15 16 17 18
000
FTUS41 KAKQ 210309 AAA
TAFPHF
TAF AMD
KPHF 210309Z 2103/2124 VRB03KT 4SM BR SKC
      TEMPO 2103/2107 1/2SM FG BKN003
     FM211400 05005KT P6SM SKC=

USA.gov is the U.S. government's official web portal to all federal, state and local government web resources and services.